Terminal Aerodrome Forecast
Issued by NWS

Home | Current Version | Previous Version | Text Only | Print | Product List | Glossary On
Versions: 1 2 3 4 5 6 7 8 9 10 11 12
000
FTUS44 KLZK 231730
TAFADF
TAF
KADF 231730Z 2318/2418 29006KT P6SM VCSH SCT040 BKN080
      TEMPO 2318/2322 5SM TSRA BR OVC040CB
     FM240100 30005KT P6SM SCT060 BKN100
     FM240900 29003KT P6SM BKN020 OVC050
     FM241500 31009KT P6SM BKN040=

USA.gov is the U.S. government's official web portal to all federal, state and local government web resources and services.